Weather reports worldwide

Advertisment
Capdepera,Faro, Spain (8311): temperature & dewpoint: 10.07.2018 18:00:00 - 16.07.2018 18:00:00 (CEST)Capdepera,Faro, Spain (8311): wind speed & gusts: 10.07.2018 18:00:00 - 16.07.2018 18:00:00 (CEST)Capdepera,Faro, Spain (8311): wind direction: 10.07.2018 18:00:00 - 16.07.2018 18:00:00 (CEST)Capdepera,Faro, Spain (8311): precipitation: 10.07.2018 18:00:00 - 16.07.2018 18:00:00 (CEST)
Date & Time tt [°C] td [°C] ff [km/h] ff [kn] fx [km/h] fx [kn] dd rr [mm]
16.07.2018 18:00:00 - - - - - - - -
16.07.2018 17:00:00 27,1 20,9 41 22 58 32 NNW 0,0
16.07.2018 16:00:00 27,5 19,1 48 26 61 33 N 0,0
16.07.2018 15:00:00 28,3 18,7 38 21 68 37 N 0,0
16.07.2018 14:00:00 28,7 19,6 33 18 65 35 N -
16.07.2018 13:00:00 28,1 19,6 46 25 60 33 N 0,0
16.07.2018 12:00:00 31,5 21,1 19 11 40 21 N 0,0
16.07.2018 11:00:00 30,1 22,0 20 11 37 20 NW 0,0
16.07.2018 10:00:00 26,9 22,1 13 7 36 19 W 0,0
16.07.2018 09:00:00 25,4 21,7 27 15 44 24 WNW 0,0
16.07.2018 08:00:00 25,1 21,4 26 14 41 22 W -
16.07.2018 07:00:00 24,9 22,2 34 18 50 27 ESE 0,0
16.07.2018 06:00:00 25,1 21,2 29 15 62 34 ESE 0,0
16.07.2018 05:00:00 24,8 22,3 16 9 43 23 ESE 0,0
16.07.2018 04:00:00 25,0 22,7 11 6 67 36 SE 0,0
16.07.2018 03:00:00 25,3 23,0 20 11 45 25 SE 0,0
16.07.2018 02:00:00 25,2 23,0 22 12 44 24 SE -
16.07.2018 01:00:00 25,2 23,6 24 13 44 24 SE 0,0
16.07.2018 00:00:00 26,2 20,3 14 8 36 20 SE 0,0
15.07.2018 23:00:00 26,0 22,7 23 12 34 19 SE 0,0
15.07.2018 22:00:00 26,0 22,5 19 10 30 16 SE 0,0
15.07.2018 21:00:00 26,4 21,4 18 10 49 26 SE 0,0
15.07.2018 20:00:00 25,9 23,4 29 16 46 25 ESE -
15.07.2018 19:00:00 26,3 23,4 23 13 41 22 SE 0,0
15.07.2018 18:00:00 27,1 21,6 36 19 53 29 ESE 0,0
15.07.2018 17:00:00 27,2 23,0 39 21 49 26 SE 0,0
15.07.2018 16:00:00 27,0 22,8 32 17 47 26 SE 0,0
15.07.2018 15:00:00 27,7 23,1 32 18 43 23 ESE 0,0
15.07.2018 14:00:00 28,3 23,7 30 16 38 21 SE -
15.07.2018 13:00:00 27,7 23,9 29 16 39 21 SE 0,0
15.07.2018 12:00:00 26,5 23,8 28 15 37 20 SE 0,0
15.07.2018 11:00:00 26,2 23,9 26 14 41 22 SE 0,0
15.07.2018 10:00:00 26,9 23,7 20 11 26 14 ESE 0,0
15.07.2018 09:00:00 27,5 22,0 0 0 0 0 N 0,0
15.07.2018 08:00:00 25,9 21,8 0 0 10 5 N -
15.07.2018 07:00:00 24,2 20,7 9 5 13 7 ESE 0,0
15.07.2018 06:00:00 23,7 22,0 7 4 14 7 ESE 0,0
15.07.2018 05:00:00 24,0 21,5 11 6 14 7 SE 0,0
15.07.2018 04:00:00 24,2 21,3 12 7 18 10 SE 0,0
15.07.2018 03:00:00 24,1 21,3 13 7 16 9 ESE 0,0
15.07.2018 02:00:00 24,1 22,2 14 8 16 8 SE -
15.07.2018 01:00:00 24,2 22,1 0 0 0 0 N 0,0
15.07.2018 00:00:00 24,7 22,6 2 1 14 7 ESE 0,0
14.07.2018 23:00:00 25,0 22,7 12 7 15 8 SE 0,0
14.07.2018 22:00:00 25,1 22,4 11 6 18 10 SE 0,0
14.07.2018 21:00:00 25,5 22,4 16 8 21 11 SE 0,0
14.07.2018 20:00:00 25,8 22,1 20 11 28 15 SE -
14.07.2018 19:00:00 26,3 22,1 26 14 29 15 SE 0,0
14.07.2018 18:00:00 27,7 22,2 19 11 29 16 SE 0,0
14.07.2018 17:00:00 28,0 22,3 21 11 34 18 SE 0,0
14.07.2018 16:00:00 28,3 22,1 28 15 37 20 SE 0,0
14.07.2018 15:00:00 28,2 22,2 26 14 41 22 SE 0,0
14.07.2018 14:00:00 27,7 22,0 28 15 42 23 SE -
14.07.2018 13:00:00 27,5 22,2 29 15 36 20 SE 0,0
14.07.2018 12:00:00 27,6 22,1 27 15 35 19 ESE 0,0
14.07.2018 11:00:00 27,5 22,0 21 11 30 16 ESE 0,0
14.07.2018 10:00:00 26,7 22,1 22 12 29 16 ESE 0,0
14.07.2018 09:00:00 27,2 22,6 9 5 14 8 ESE 0,0
14.07.2018 08:00:00 26,0 22,3 7 4 18 10 NNE -
14.07.2018 07:00:00 25,2 22,3 10 5 21 11 NNE 0,0
14.07.2018 06:00:00 25,0 21,3 19 10 26 14 E 0,0
14.07.2018 05:00:00 24,7 21,8 19 11 24 13 NE 0,0
14.07.2018 04:00:00 24,8 21,9 16 9 29 16 NNE 0,0
14.07.2018 03:00:00 24,8 21,1 24 13 31 17 NNE 0,0
14.07.2018 02:00:00 25,1 21,4 27 15 35 19 NNE -
14.07.2018 01:00:00 25,1 21,6 22 12 35 19 NNE 0,0
14.07.2018 00:00:00 25,4 21,7 24 13 28 15 NNE 0,0
13.07.2018 23:00:00 25,8 21,1 16 9 20 11 NE 0,0
13.07.2018 22:00:00 25,9 20,7 12 6 16 9 E 0,0
13.07.2018 21:00:00 26,1 20,9 13 7 18 10 E 0,0
13.07.2018 20:00:00 26,6 21,1 11 6 16 9 ESE -
13.07.2018 19:00:00 26,5 21,9 8 5 24 13 ESE 0,0
13.07.2018 18:00:00 26,7 21,0 20 11 26 14 E 0,0
13.07.2018 17:00:00 27,4 21,2 11 6 22 12 E 0,0
13.07.2018 16:00:00 28,1 20,7 11 6 20 11 E 0,0
13.07.2018 15:00:00 28,5 21,0 14 7 22 12 E 0,0
13.07.2018 14:00:00 27,6 20,9 11 6 34 18 ESE -
13.07.2018 13:00:00 27,7 20,0 11 6 22 12 ESE 0,0
13.07.2018 12:00:00 27,2 22,0 24 13 33 18 E 0,0
13.07.2018 11:00:00 27,4 21,7 22 12 33 18 ENE 0,0
13.07.2018 10:00:00 26,3 22,1 21 11 26 14 ENE 0,0
13.07.2018 09:00:00 26,1 22,6 18 10 37 20 E 0,0
13.07.2018 08:00:00 25,2 23,5 23 12 29 16 NE -
13.07.2018 07:00:00 24,4 23,2 23 12 30 16 NNE 0,0
13.07.2018 06:00:00 24,4 23,7 24 13 29 15 NNE 0,0
13.07.2018 05:00:00 24,6 23,7 16 8 21 11 NE 0,0
13.07.2018 04:00:00 24,7 23,1 9 5 16 9 NE 0,0
13.07.2018 03:00:00 24,9 23,3 5 3 16 9 ESE 0,0
13.07.2018 02:00:00 25,1 23,5 6 4 16 8 ESE -
13.07.2018 01:00:00 25,1 23,5 8 4 15 8 ESE 0,0
13.07.2018 00:00:00 25,3 23,7 8 5 20 11 ESE 0,0
12.07.2018 23:00:00 25,5 23,6 14 8 19 10 SE 0,0
12.07.2018 22:00:00 25,6 23,3 15 8 19 11 SE 0,0
12.07.2018 21:00:00 25,7 23,4 12 7 17 9 SE 0,0
12.07.2018 20:00:00 25,9 23,6 5 3 15 8 ESE -
12.07.2018 19:00:00 26,2 23,3 3 1 11 6 ESE 0,0
12.07.2018 18:00:00 26,8 22,9 4 2 14 7 SE 0,0
12.07.2018 17:00:00 27,8 22,5 12 6 17 9 SSE 0,0
12.07.2018 16:00:00 29,5 23,0 15 8 22 12 SE 0,0
12.07.2018 15:00:00 29,7 22,4 17 9 23 12 SE 0,0
12.07.2018 14:00:00 29,2 22,7 18 10 24 13 SE -
12.07.2018 13:00:00 29,3 22,8 21 11 26 14 SE 0,0
12.07.2018 12:00:00 29,4 23,1 17 9 22 12 SE 0,0
12.07.2018 11:00:00 28,4 22,9 16 9 21 11 SSE 0,0
12.07.2018 10:00:00 27,5 22,9 18 10 22 12 SSE 0,0
12.07.2018 09:00:00 26,3 23,2 18 10 23 13 SSE 0,0
12.07.2018 08:00:00 25,3 23,3 14 7 19 10 SSE -
12.07.2018 07:00:00 24,2 23,0 0 0 0 0 N 0,0
12.07.2018 06:00:00 24,2 22,8 0 0 0 0 N 0,0
12.07.2018 05:00:00 24,3 22,7 0 0 25 14 N 0,0
12.07.2018 04:00:00 24,6 23,0 17 9 28 15 SSE 0,0
12.07.2018 03:00:00 24,8 23,2 22 12 24 13 SSE 0,0
12.07.2018 02:00:00 24,8 23,0 8 5 24 13 SE -
12.07.2018 01:00:00 24,9 23,3 23 12 28 15 SSE 0,0
12.07.2018 00:00:00 24,9 23,0 19 10 23 12 SSE 0,0
11.07.2018 23:00:00 25,0 23,5 18 10 24 13 SSE 0,0
11.07.2018 22:00:00 25,1 23,3 23 12 27 15 SSE 0,0
11.07.2018 21:00:00 25,6 23,3 24 13 33 18 SSE 0,0
11.07.2018 20:00:00 25,8 23,3 30 16 34 19 SSE -
11.07.2018 19:00:00 26,6 22,6 27 15 39 21 SE 0,0
11.07.2018 18:00:00 27,2 21,5 34 19 39 21 SSE 0,0
11.07.2018 17:00:00 29,0 22,0 28 15 31 17 SSE 0,0
11.07.2018 16:00:00 29,4 22,1 24 13 29 15 SSE 0,0
11.07.2018 15:00:00 29,4 22,1 23 12 29 16 SSE 0,0
11.07.2018 14:00:00 28,8 22,1 22 12 25 13 SSE -
11.07.2018 13:00:00 29,7 23,2 17 9 22 12 SE 0,0
11.07.2018 12:00:00 29,3 23,3 19 10 21 11 SE 0,0
11.07.2018 11:00:00 28,4 23,3 17 9 19 11 SE 0,0
11.07.2018 10:00:00 27,9 22,8 9 5 12 7 SE 0,0
11.07.2018 09:00:00 26,8 22,2 0 0 4 2 N 0,0
11.07.2018 08:00:00 26,4 21,6 0 0 5 3 N -
11.07.2018 07:00:00 24,3 20,8 6 3 10 5 SSE 0,0
11.07.2018 06:00:00 24,4 20,5 0 0 8 5 N 0,0
11.07.2018 05:00:00 24,5 21,0 7 4 12 7 SE 0,0
11.07.2018 04:00:00 24,6 20,1 8 5 11 6 SE 0,0
11.07.2018 03:00:00 24,5 20,0 8 4 11 6 SSE 0,0
11.07.2018 02:00:00 24,5 20,0 9 5 15 8 SSE -
11.07.2018 01:00:00 24,6 20,9 12 6 18 10 SSE 0,0
11.07.2018 00:00:00 24,9 21,2 12 7 18 10 SSE 0,0
10.07.2018 23:00:00 25,1 21,4 15 8 21 11 SSE 0,0
10.07.2018 22:00:00 25,6 21,7 15 8 28 15 S 0,0
10.07.2018 21:00:00 25,8 22,1 21 12 30 16 S 0,0
10.07.2018 20:00:00 26,1 22,4 21 11 31 17 S -
10.07.2018 19:00:00 26,6 22,4 22 12 31 17 S 0,0
10.07.2018 18:00:00 28,2 21,7 24 13 29 15 S 0,0

tt = temperature
td = dewpoint
ff = wind speed
fx = gusts
dd = wind direction
rr = precipitation

Next stations